N1YZ Weather Reports


time (UTC)temp
F
wind
direction
speed
knots
gust
knots
rain 1hr
in
rain 24hr
in
rain mn
in
humidity
%
barometer
mb
20240723045139 73 154 0.0 0.0 0.00 0.00 0.00 97 1037.9
20240723044638 73 154 0.0 0.0 0.00 0.00 0.00 96 1037.8
20240723044138 73 154 0.0 0.0 0.00 0.00 0.00 96 1037.9
20240723043637 73 155 0.0 0.0 0.00 0.00 0.00 96 1038.1
20240723043136 73 155 0.0 0.0 0.00 0.00 0.00 96 1037.9
20240723042629 73 155 0.0 0.0 0.00 0.00 0.00 96 1038.0
20240723042128 73 155 0.0 0.0 0.00 0.00 0.00 96 1037.9
20240723041627 73 155 0.0 0.0 0.00 0.00 0.00 96 1037.8
20240723041127 73 155 0.0 0.0 0.00 0.00 0.00 96 1037.8
20240723040625 73 155 0.0 0.0 0.00 0.00 0.00 95 1037.7
20240723040124 73 155 0.0 0.0 0.00 0.00 0.00 95 1037.6
20240723035622 73 155 0.0 0.0 0.00 0.00 0.00 95 1037.6
20240723035122 73 155 0.0 0.0 0.00 0.00 0.00 95 1037.8
20240723034621 73 155 0.0 0.0 0.00 0.00 0.00 95 1037.5
20240723034119 73 155 0.0 0.0 0.00 0.00 0.00 95 1037.7
20240723033617 73 155 0.0 0.0 0.00 0.00 0.00 95 1037.8
20240723033116 73 155 0.0 0.0 0.00 0.00 0.00 95 1037.6
20240723032614 73 155 0.0 0.0 0.00 0.00 0.00 95 1037.6
20240723032112 73 155 0.0 0.0 0.00 0.00 0.00 95 1037.4
20240723031611 73 155 0.0 0.0 0.00 0.00 0.00 95 1037.6
20240723031110 73 155 0.0 0.0 0.00 0.00 0.00 95 1037.6
20240723030609 73 155 0.0 0.0 0.00 0.00 0.00 95 1037.6
20240723030108 74 155 0.0 0.0 0.00 0.00 0.00 95 1037.5
20240723025607 74 155 0.0 0.0 0.00 0.00 0.00 94 1037.5
20240723025106 74 155 0.0 0.0 0.00 0.00 0.00 94 1037.6
20240723024605 74 155 0.0 0.0 0.00 0.00 0.00 94 1037.6
20240723024103 74 155 0.0 0.0 0.00 0.00 0.00 94 1037.5
20240723023601 74 155 0.0 0.0 0.00 0.00 0.00 93 1037.5
20240723023100 74 155 0.0 0.0 0.00 0.00 0.00 93 1037.4
20240723022558 74 155 0.0 0.0 0.00 0.00 0.00 92 1037.3
20240723022057 74 155 0.0 0.0 0.00 0.00 0.00 92 1037.1
20240723021555 75 155 0.0 0.0 0.00 0.00 0.00 92 1037.2
20240723021053 75 155 0.0 0.0 0.00 0.00 0.00 92 1037.1
20240723020552 75 155 0.0 0.0 0.00 0.00 0.00 92 1037.0
20240723020051 75 155 0.0 0.0 0.00 0.00 0.00 92 1036.9
20240723015547 75 155 0.0 0.0 0.00 0.00 0.00 91 1036.7
20240723015047 75 155 0.0 0.0 0.00 0.00 0.00 91 1036.8
20240723014546 75 155 0.0 0.0 0.00 0.00 0.00 92 1036.6
20240723014046 75 155 0.0 0.0 0.00 0.00 0.00 91 1036.7
20240723013545 75 155 0.0 0.0 0.00 0.00 0.00 91 1036.7
20240723013043 75 155 0.0 0.0 0.00 0.00 0.00 90 1036.4
20240723012540 76 155 0.0 0.0 0.00 0.00 0.00 90 1036.4
20240723012038 76 155 0.0 0.0 0.00 0.00 0.00 89 1036.3
20240723011535 76 155 0.0 0.0 0.00 0.00 0.00 89 1036.4
20240723011034 76 155 0.0 0.0 0.00 0.00 0.00 89 1036.3
20240723010533 76 155 0.0 0.0 0.00 0.00 0.00 89 1036.3
20240723010033 77 155 0.0 0.0 0.00 0.00 0.00 88 1036.4
20240723005528 76 156 0.0 0.0 0.00 0.00 0.00 88 1036.2
20240723005027 76 155 0.0 0.0 0.00 0.00 0.00 90 1036.2
20240723004526 77 155 0.0 0.0 0.00 0.00 0.00 90 1036.1
20240723004025 77 155 0.0 0.0 0.00 0.00 0.00 90 1036.0
20240723003523 77 155 0.0 0.0 0.00 0.00 0.00 89 1035.9
20240723003022 78 155 0.0 0.0 0.00 0.00 0.00 87 1036.1
20240723002518 77 158 0.0 0.0 0.00 0.00 0.00 90 1035.9
20240723002017 78 158 0.0 0.0 0.00 0.00 0.00 90 1035.9
20240723001511 78 158 0.0 0.0 0.00 0.00 0.00 89 1035.9
20240723001010 78 158 0.0 0.0 0.00 0.00 0.00 89 1035.5
20240723000509 78 159 0.0 0.0 0.00 0.00 0.00 88 1035.7
20240723000008 78 159 0.0 0.0 0.00 0.00 0.00 88 1035.9
20240722235506 78 159 0.0 0.0 0.00 0.00 0.00 87 1035.9
20240722235005 78 169 0.0 0.0 0.00 0.00 0.00 88 1035.8
20240722234503 78 169 1.7 1.7 0.00 0.00 0.00 87 1035.7
20240722234003 78 171 0.0 0.0 0.00 0.00 0.00 88 1035.8
20240722233500 78 171 0.0 0.0 0.00 0.00 0.00 87 1035.8
20240722233000 78 171 0.0 0.0 0.00 0.00 0.00 88 1035.5
20240722232458 78 171 0.0 0.0 0.00 0.00 0.00 87 1035.6
20240722231956 79 180 0.9 0.9 0.00 0.00 0.00 86 1035.4
20240722231455 79 161 1.7 2.6 0.00 0.00 0.00 85 1035.4
20240722230954 79 179 0.9 0.9 0.00 0.00 0.00 87 1035.7
20240722230450 80 168 1.7 1.7 0.00 0.00 0.00 88 1035.4
20240722225949 80 183 2.6 2.6 0.00 0.00 0.00 87 1035.5
20240722225444 80 156 0.9 1.7 0.00 0.00 0.00 85 1035.5
20240722224943 80 159 0.0 0.9 0.00 0.00 0.00 85 1035.4
20240722224443 80 159 0.0 0.0 0.00 0.00 0.00 84 1035.2
20240722223942 81 160 0.9 0.9 0.00 0.00 0.00 84 1035.1
20240722223440 81 160 0.0 0.9 0.00 0.00 0.00 83 1035.3
20240722222939 81 158 1.7 1.7 0.00 0.00 0.00 83 1035.3
20240722222438 81 172 1.7 1.7 0.00 0.00 0.00 83 1035.3
20240722221937 82 156 1.7 1.7 0.00 0.00 0.00 81 1035.3
20240722221435 83 156 0.0 0.0 0.00 0.00 0.00 79 1035.3
20240722220933 83 156 0.0 0.0 0.00 0.00 0.00 79 1035.4
20240722220431 83 156 0.0 0.0 0.00 0.00 0.00 78 1035.4
20240722215930 83 156 0.0 0.0 0.00 0.00 0.00 78 1035.6
20240722215429 84 156 0.0 0.0 0.00 0.00 0.00 77 1035.6
20240722214928 84 156 0.0 0.0 0.00 0.00 0.00 75 1035.3
20240722214427 84 156 0.0 0.0 0.00 0.00 0.00 74 1035.3
20240722213925 83 156 0.0 0.0 0.00 0.00 0.00 78 1035.3
20240722213424 84 156 0.0 0.0 0.00 0.00 0.00 77 1035.3
20240722212923 84 156 0.0 0.0 0.00 0.00 0.00 77 1035.3
20240722212421 84 156 0.0 0.0 0.00 0.00 0.00 76 1035.6
20240722211919 84 158 0.0 0.0 0.00 0.00 0.00 76 1035.1
20240722211418 84 162 0.9 0.9 0.00 0.00 0.00 75 1035.3
20240722210917 84 162 0.0 0.0 0.00 0.00 0.00 72 1035.3
20240722210417 84 165 0.0 0.0 0.00 0.00 0.00 79 1035.2
20240722205915 84 165 0.0 0.0 0.00 0.00 0.00 76 1035.6
20240722205413 84 166 0.0 0.0 0.00 0.00 0.00 75 1035.4
20240722204908 83 165 0.0 0.0 0.00 0.00 0.00 74 1035.4
20240722204407 83 166 0.0 0.0 0.00 0.00 0.00 80 1035.2
20240722203904 84 165 0.0 0.0 0.00 0.00 0.00 77 1035.2
20240722203403 84 135 1.7 1.7 0.00 0.00 0.00 76 1035.4
20240722202859 83 150 0.0 0.0 0.00 0.00 0.00 77 1035.4
20240722202357 83 150 0.0 0.0 0.00 0.00 0.00 77 1035.5
20240722201854 83 151 0.0 0.0 0.00 0.00 0.00 76 1035.5
20240722201353 84 172 0.0 0.0 0.00 0.00 0.00 77 1035.5
20240722200851 83 194 0.9 0.9 0.00 0.00 0.00 79 1035.8
20240722200351 83 176 0.0 0.0 0.00 0.00 0.00 79 1035.8
20240722195850 84 220 0.0 0.0 0.00 0.00 0.00 76 1035.8
20240722195348 84 221 0.0 0.0 0.00 0.00 0.00 78 1035.9
20240722194845 85 225 0.0 0.0 0.00 0.00 0.00 75 1036.0
20240722194343 85 194 0.0 0.9 0.00 0.00 0.00 72 1036.1
20240722193842 85 180 0.0 0.0 0.00 0.00 0.00 75 1036.3
20240722193341 84 257 0.9 0.9 0.00 0.00 0.00 75 1036.3
20240722192839 84 168 0.0 0.0 0.00 0.00 0.00 74 1036.3
20240722192337 84 168 0.0 0.0 0.00 0.00 0.00 75 1036.7
20240722191837 83 168 0.0 0.0 0.00 0.00 0.00 75 1036.7
20240722191336 83 233 0.0 0.0 0.00 0.00 0.00 78 1036.8
20240722190835 83 273 0.9 0.9 0.00 0.00 0.00 76 1036.7
20240722190333 82 243 0.0 0.9 0.00 0.00 0.00 81 1036.8
20240722185832 83 243 0.0 0.0 0.00 0.00 0.00 79 1036.8
20240722185331 81 243 0.9 0.9 0.00 0.00 0.00 84 1036.9
20240722184829 80 243 0.0 0.0 0.00 0.00 0.00 83 1037.0
20240722184328 81 243 0.9 0.9 0.00 0.00 0.00 83 1037.0
20240722183827 81 243 0.9 0.9 0.00 0.00 0.00 81 1037.2
20240722183326 82 246 0.0 0.0 0.00 0.00 0.00 81 1037.1
20240722182823 82 247 0.0 0.0 0.00 0.00 0.00 79 1037.3
20240722182323 81 192 0.0 0.0 0.00 0.00 0.00 84 1037.2
20240722181821 82 191 0.0 0.0 0.00 0.00 0.00 85 1037.3
20240722181319 81 191 0.0 0.0 0.00 0.00 0.00 85 1037.6
20240722180813 79 156 0.0 0.0 0.00 0.00 0.00 86 1037.6
20240722180311 79 157 0.0 0.0 0.00 0.00 0.00 87 1037.7
20240722175810 79 157 0.0 0.0 0.00 0.00 0.00 88 1037.7
20240722175310 79 160 0.0 0.0 0.00 0.00 0.00 88 1037.7
20240722174808 78 162 0.0 0.9 0.00 0.00 0.00 90 1037.5
20240722174307 78 166 0.0 0.0 0.00 0.00 0.00 88 1037.8
20240722173806 78 174 0.0 0.0 0.00 0.00 0.00 89 1037.7
20240722173304 78 168 0.0 0.9 0.00 0.00 0.00 88 1037.9
20240722172802 77 195 0.0 0.0 0.00 0.00 0.00 89 1037.7
20240722172301 77 197 0.0 0.0 0.00 0.00 0.00 91 1038.1
20240722171759 77 195 0.0 0.0 0.00 0.00 0.00 92 1037.9
20240722171257 76 196 0.0 0.0 0.00 0.00 0.00 91 1038.0
20240722170755 76 196 0.0 0.0 0.00 0.00 0.00 93 1037.9
20240722170254 77 196 0.0 0.0 0.00 0.00 0.00 91 1038.1
20240722165753 77 196 0.0 0.0 0.00 0.00 0.00 90 1038.2
20240722165251 77 197 0.0 0.0 0.00 0.00 0.00 90 1037.9
20240722164751 77 199 0.0 0.0 0.00 0.00 0.00 90 1037.8
20240722164249 77 46 1.7 2.6 0.00 0.00 0.00 89 1038.1
20240722163744 77 162 0.0 0.0 0.00 0.00 0.00 89 1038.1
20240722163243 77 161 0.0 0.0 0.00 0.00 0.00 88 1038.0
20240722162742 77 131 0.0 0.0 0.00 0.00 0.00 89 1038.1
20240722162240 76 169 0.0 0.0 0.00 0.00 0.00 90 1038.2
20240722161739 76 170 0.0 0.0 0.00 0.00 0.00 90 1038.1
20240722161237 76 171 0.0 0.0 0.00 0.00 0.00 90 1038.3
20240722160735 76 173 0.0 0.0 0.00 0.00 0.00 91 1038.1
20240722160235 76 185 0.0 0.0 0.00 0.00 0.00 92 1038.1
20240722155734 76 150 0.0 0.0 0.00 0.00 0.00 93 1038.0
20240722155233 76 150 0.0 0.0 0.00 0.00 0.00 92 1038.4
20240722154733 75 150 0.0 0.0 0.00 0.00 0.00 91 1038.3
20240722154231 76 150 0.0 0.0 0.00 0.00 0.00 93 1038.1
20240722153730 76 150 0.0 0.0 0.00 0.00 0.00 92 1038.2
20240722153228 76 154 0.0 0.0 0.00 0.00 0.00 92 1038.2
20240722152727 76 154 0.0 0.0 0.00 0.00 0.00 93 1038.0
20240722152226 76 154 0.0 0.0 0.00 0.00 0.00 92 1038.3
20240722151724 75 154 0.0 0.0 0.00 0.00 0.00 91 1038.2
20240722151222 75 154 0.0 0.0 0.00 0.00 0.00 93 1038.1
20240722150718 75 154 0.0 0.0 0.00 0.00 0.00 93 1038.3
20240722150217 75 154 0.0 0.0 0.00 0.00 0.00 93 1038.1
20240722145716 75 154 0.0 0.0 0.00 0.00 0.00 93 1037.8
20240722145214 76 154 0.0 0.0 0.00 0.00 0.00 92 1037.9
20240722144713 75 154 0.0 0.0 0.00 0.00 0.00 92 1037.9
20240722144213 75 154 0.0 0.0 0.00 0.00 0.00 92 1038.0
20240722143711 75 154 0.0 0.0 0.00 0.00 0.00 92 1037.8
20240722143211 74 154 0.9 1.7 0.00 0.00 0.00 93 1037.7
20240722142710 74 154 0.0 0.0 0.00 0.00 0.00 94 1037.7
20240722142209 74 160 0.0 0.0 0.00 0.00 0.00 95 1037.7
20240722141709 73 158 0.0 0.0 0.00 0.00 0.00 97 1037.5
20240722141207 73 158 0.0 0.0 0.00 0.00 0.00 98 1037.3
20240722140704 73 158 0.0 0.0 0.00 0.00 0.00 97 1037.6
20240722140202 73 158 0.0 0.0 0.00 0.00 0.00 97 1037.6
20240722135701 73 158 0.0 0.0 0.00 0.00 0.00 97 1037.6
20240722135158 73 158 0.0 0.0 0.00 0.00 0.00 97 1037.8
20240722134658 73 158 0.0 0.0 0.00 0.00 0.00 97 1037.7
20240722134156 72 158 0.0 0.0 0.00 0.00 0.00 98 1037.6
20240722133654 72 158 0.0 0.0 0.00 0.00 0.00 98 1037.6
20240722133153 72 158 0.0 0.0 0.00 0.00 0.00 98 1037.5
20240722132651 72 158 0.0 0.0 0.00 0.00 0.00 99 1037.6
20240722132151 72 158 0.0 0.0 0.00 0.00 0.00 99 1037.7
20240722131650 72 158 0.0 0.0 0.00 0.00 0.00 98 1037.6
20240722131148 72 158 0.0 0.0 0.00 0.00 0.00 98 1037.5
20240722130647 72 158 0.0 0.0 0.00 0.00 0.00 99 1037.6
20240722130146 72 158 0.0 0.0 0.00 0.00 0.00 99 1037.6
20240722125645 72 158 0.9 0.9 0.00 0.00 0.00 99 1037.3
20240722125143 72 158 0.0 0.0 0.00 0.00 0.00 98 1037.4
20240722124641 72 158 0.0 0.0 0.00 0.00 0.00 98 1037.4
20240722124142 72 158 0.0 0.0 0.00 0.00 0.00 98 1037.6
20240722123641 72 158 0.0 0.0 0.00 0.00 0.00 98 1037.3
20240722123138 71 158 0.0 0.0 0.00 0.00 0.00 98 1037.3
20240722122635 71 158 0.0 0.0 0.00 0.00 0.00 98 1037.1
20240722122131 71 158 0.0 0.0 0.00 0.00 0.00 99 1037.2
20240722121629 71 158 0.0 0.0 0.00 0.00 0.00 99 1037.1
20240722121128 71 158 0.0 0.0 0.00 0.00 0.00 99 1037.0
20240722120625 71 158 0.0 0.0 0.00 0.00 0.00 99 1036.9
20240722120124 71 158 0.0 0.0 0.00 0.00 0.00 99 1036.8
20240722115623 71 158 0.0 0.0 0.00 0.00 0.00 99 1036.9
20240722115122 70 158 0.0 0.0 0.00 0.00 0.00 99 1036.8
20240722114620 70 158 0.0 0.0 0.00 0.00 0.00 99 1036.7
20240722114119 70 158 0.0 0.0 0.00 0.00 0.00 99 1036.6
20240722113617 70 158 0.0 0.0 0.00 0.00 0.00 99 1036.8
20240722113116 70 157 0.0 0.0 0.00 0.00 0.00 99 1036.8
20240722112614 70 157 0.0 0.0 0.00 0.00 0.00 99 1036.7
20240722112111 70 157 0.0 0.0 0.00 0.00 0.00 99 1036.7
20240722111611 70 157 0.0 0.0 0.00 0.00 0.00 99 1036.8
20240722111108 70 157 0.0 0.0 0.00 0.00 0.00 99 1036.7
20240722110607 70 157 0.0 0.0 0.00 0.00 0.00 99 1036.8
20240722110105 70 157 0.0 0.0 0.00 0.00 0.00 99 1036.8
20240722105603 70 157 0.0 0.0 0.00 0.00 0.00 99 1036.8
20240722105101 70 157 0.0 0.0 0.00 0.00 0.00 99 1036.6
20240722104600 70 157 0.0 0.0 0.00 0.00 0.00 99 1036.6
20240722104100 70 157 0.0 0.0 0.00 0.00 0.00 99 1036.5
20240722103559 70 157 0.0 0.0 0.00 0.00 0.00 99 1036.8
20240722103058 70 157 0.0 0.0 0.00 0.00 0.00 99 1036.6
20240722102557 70 157 0.0 0.0 0.00 0.00 0.00 99 1036.7
20240722102056 69 157 0.0 0.0 0.00 0.00 0.00 99 1036.5
20240722101555 70 157 0.0 0.0 0.00 0.00 0.00 99 1036.4
20240722101053 69 157 0.0 0.0 0.00 0.00 0.00 99 1036.5
20240722100552 69 157 0.0 0.0 0.00 0.00 0.00 99 1036.3
20240722100050 70 157 0.0 0.0 0.00 0.00 0.00 99 1036.2
20240722095548 69 157 0.0 0.0 0.00 0.00 0.00 99 1036.2
20240722095048 69 157 0.0 0.0 0.00 0.00 0.00 99 1036.1
20240722094546 69 157 0.0 0.0 0.00 0.00 0.00 99 1036.4
20240722094043 69 157 0.0 0.0 0.00 0.00 0.00 99 1036.2
20240722093541 69 157 0.0 0.0 0.00 0.00 0.00 99 1036.0
20240722093041 69 157 0.0 0.0 0.00 0.00 0.00 99 1036.0
20240722092539 69 158 0.0 0.0 0.00 0.00 0.00 99 1035.9
20240722092038 69 158 0.0 0.0 0.00 0.00 0.00 99 1036.0
20240722091535 69 158 0.0 0.0 0.00 0.00 0.00 99 1036.0
20240722091035 69 158 0.0 0.0 0.00 0.00 0.00 99 1036.0
20240722090533 69 158 0.0 0.0 0.00 0.00 0.00 99 1035.9
20240722090031 69 158 0.0 0.0 0.00 0.00 0.00 99 1036.1
20240722085527 69 158 0.0 0.0 0.00 0.00 0.00 99 1036.1
20240722085026 69 158 0.0 0.0 0.00 0.00 0.00 99 1036.0
20240722084523 69 158 0.0 0.0 0.00 0.00 0.00 99 1036.5
20240722084021 69 158 0.0 0.0 0.00 0.00 0.00 99 1036.1
20240722083520 69 158 0.0 0.0 0.00 0.00 0.00 99 1036.2
20240722083020 69 158 0.0 0.0 0.00 0.00 0.00 99 1036.0
20240722082518 69 158 0.0 0.0 0.00 0.00 0.00 99 1036.3
20240722082017 69 158 0.0 0.0 0.00 0.00 0.00 99 1036.1
20240722081515 69 158 0.0 0.0 0.00 0.00 0.00 99 1036.2
20240722081014 69 158 0.0 0.0 0.00 0.00 0.00 99 1036.0
20240722080513 69 158 0.0 0.0 0.00 0.00 0.00 99 1035.9
20240722080013 70 158 0.0 0.0 0.00 0.00 0.00 99 1036.2
20240722075510 70 158 0.0 0.0 0.00 0.00 0.00 99 1036.2
20240722075009 70 158 0.0 0.0 0.00 0.00 0.00 99 1036.2
20240722074508 69 158 0.0 0.0 0.00 0.00 0.00 99 1036.3
20240722074006 70 158 0.0 0.0 0.00 0.00 0.00 99 1036.4
20240722073505 70 158 0.0 0.0 0.00 0.00 0.00 99 1036.6
20240722073003 69 158 0.0 0.0 0.00 0.00 0.00 99 1036.4
20240722072501 70 158 0.0 0.0 0.00 0.00 0.00 99 1036.6
20240722071959 70 158 0.0 0.0 0.00 0.00 0.00 99 1036.7
20240722071457 70 158 0.0 0.0 0.00 0.00 0.00 99 1036.6
20240722070956 70 158 0.0 0.0 0.00 0.00 0.00 99 1036.5
20240722070453 70 158 0.0 0.0 0.00 0.00 0.00 99 1036.5
20240722065953 70 158 0.0 0.0 0.00 0.00 0.00 99 1036.6
20240722065453 70 158 0.0 0.0 0.00 0.00 0.00 99 1036.7
20240722064951 70 158 0.0 0.0 0.00 0.00 0.00 99 1036.7
20240722064449 70 158 0.0 0.0 0.00 0.00 0.00 99 1037.0
20240722063949 70 158 0.0 0.0 0.00 0.00 0.00 99 1037.1
20240722063446 70 158 0.0 0.0 0.00 0.00 0.00 99 1036.9
20240722062944 70 158 0.0 0.0 0.00 0.00 0.00 99 1037.0
20240722062443 70 158 0.0 0.0 0.00 0.00 0.00 99 1037.2
20240722061942 71 158 0.0 0.0 0.00 0.00 0.00 98 1037.1
20240722061441 71 158 0.0 0.0 0.00 0.00 0.00 99 1037.5
20240722060939 71 158 0.0 0.0 0.00 0.00 0.00 99 1037.4
20240722060437 71 158 0.0 0.0 0.00 0.00 0.00 99 1037.5
20240722055936 71 158 0.0 0.0 0.00 0.00 0.00 99 1037.6
20240722055434 71 158 0.0 0.0 0.00 0.00 0.00 99 1037.4
20240722054933 71 158 0.0 0.0 0.00 0.00 0.00 99 1037.3
20240722054432 71 158 0.0 0.0 0.00 0.00 0.00 99 1037.5
20240722053930 71 158 0.0 0.0 0.00 0.00 0.00 99 1037.4
20240722053428 71 159 0.0 0.0 0.00 0.00 0.00 99 1037.4
20240722052928 71 159 0.0 0.0 0.00 0.00 0.00 99 1037.4
20240722052426 71 159 0.0 0.0 0.00 0.00 0.00 99 1037.4
20240722051926 71 159 0.0 0.0 0.00 0.00 0.00 99 1037.5
20240722051423 71 159 0.0 0.0 0.00 0.00 0.00 99 1037.7
20240722050921 71 159 0.0 0.0 0.00 0.00 0.00 99 1037.9
20240722050420 71 159 0.0 0.0 0.00 0.00 0.00 99 1037.9
20240722045921 71 159 0.0 0.0 0.00 0.03 0.03 99 1037.8